Time;durP1;ratioP1;P1;durP2;ratioP2;P2;SDS_P1;SDS_P2;PMS_P1;PMS_P2;Temp;Humidity;BMP_temperature;BMP_pressure;BME280_temperature;BME280_humidity;BME280_pressure;Samples;Min_cycle;Max_cycle;Signal;HPM_P1;HPM_P2
2022/07/04 00:01:24;;;;;;;4.72;3.03;;;;;;;22.75;55.55;99635.81;5113047;28;20230;-58
2022/07/04 00:03:51;;;;;;;5.05;3.35;;;;;;;22.81;55.32;99635.31;5113182;28;20286;-58
2022/07/04 00:06:18;;;;;;;4.72;3.42;;;;;;;22.81;55.07;99631.84;5113277;28;20608;-58
2022/07/04 00:08:46;;;;;;;8.65;3.53;;;;;;;22.77;55.43;99630.41;5113162;28;20205;-57
2022/07/04 00:11:13;;;;;;;5.05;3.65;;;;;;;22.88;55.13;99640.16;5113119;28;20190;-57
2022/07/04 00:13:40;;;;;;;4.05;3.35;;;;;;;22.94;54.46;99632.56;5112906;27;20198;-57
2022/07/04 00:16:07;;;;;;;4.85;3.33;;;;;;;22.90;53.96;99628.50;5111045;28;20222;-57
2022/07/04 00:18:34;;;;;;;5.95;3.67;;;;;;;23.03;53.30;99628.34;5113025;28;20209;-57
2022/07/04 00:21:01;;;;;;;10.15;3.55;;;;;;;22.95;53.03;99620.19;5112722;28;20214;-57
2022/07/04 00:23:28;;;;;;;9.23;3.20;;;;;;;23.01;52.97;99617.91;5112832;28;20203;-58
2022/07/04 00:25:56;;;;;;;5.43;2.78;;;;;;;23.07;52.81;99622.72;5112742;28;20195;-57
2022/07/04 00:28:23;;;;;;;3.28;2.95;;;;;;;23.03;52.69;99623.06;5112553;28;20195;-58
2022/07/04 00:30:50;;;;;;;3.35;3.00;;;;;;;23.04;52.51;99614.16;5112606;28;20186;-58
2022/07/04 00:33:17;;;;;;;4.15;3.05;;;;;;;23.11;51.87;99613.56;5112737;28;20692;-57
2022/07/04 00:35:44;;;;;;;7.10;3.60;;;;;;;23.09;52.14;99612.84;5112458;28;20214;-57
2022/07/04 00:38:11;;;;;;;7.22;3.53;;;;;;;23.03;52.38;99601.88;5112574;28;20221;-56
2022/07/04 00:40:38;;;;;;;4.53;3.15;;;;;;;23.08;52.17;99605.88;5112495;28;20219;-56
2022/07/04 00:43:07;;;;;;;7.40;3.42;;;;;;;23.05;52.03;99599.97;5112335;28;20281;-55
2022/07/04 00:45:34;;;;;;;5.00;3.22;;;;;;;23.07;51.41;99596.25;5112344;28;20197;-55
2022/07/04 00:48:01;;;;;;;9.60;3.20;;;;;;;23.19;51.51;99605.00;5112189;28;20197;-55
2022/07/04 00:50:28;;;;;;;4.43;3.13;;;;;;;23.17;51.04;99605.13;5112281;28;20666;-57
2022/07/04 00:52:56;;;;;;;3.78;3.05;;;;;;;23.16;51.05;99608.75;5112427;27;20205;-57
2022/07/04 00:55:23;;;;;;;4.15;3.10;;;;;;;23.13;51.64;99600.22;5112078;28;20221;-58
2022/07/04 00:57:50;;;;;;;8.20;3.00;;;;;;;23.16;50.96;99602.59;5112030;28;20210;-57
2022/07/04 01:00:19;;;;;;;5.75;3.08;;;;;;;23.16;51.08;99602.59;5111302;28;20321;-57
2022/07/04 01:02:46;;;;;;;4.63;3.13;;;;;;;23.21;51.32;99600.44;5111970;28;20285;-57
2022/07/04 01:05:14;;;;;;;5.07;3.05;;;;;;;23.22;51.85;99598.63;5112042;27;20597;-57
2022/07/04 01:07:42;;;;;;;8.15;3.30;;;;;;;23.17;52.02;99589.25;5111986;28;20194;-57
2022/07/04 01:10:09;;;;;;;10.50;3.47;;;;;;;23.14;52.71;99588.63;5111962;28;20662;-57
2022/07/04 01:12:36;;;;;;;3.63;3.33;;;;;;;23.15;52.08;99585.88;5111807;28;20198;-56
2022/07/04 01:15:04;;;;;;;4.30;3.28;;;;;;;23.10;51.85;99593.34;5111585;28;20690;-55
2022/07/04 01:17:32;;;;;;;3.10;2.90;;;;;;;23.18;51.61;99587.44;5111613;28;20582;-54
2022/07/04 01:19:59;;;;;;;6.65;3.40;;;;;;;23.11;52.27;99586.25;5111532;28;20218;-54
2022/07/04 01:22:28;;;;;;;5.55;3.38;;;;;;;23.14;52.42;99578.88;5111670;28;20588;-54
2022/07/04 01:24:55;;;;;;;6.30;3.40;;;;;;;23.12;52.56;99583.50;5111446;28;20205;-54
2022/07/04 01:27:21;;;;;;;6.88;3.30;;;;;;;23.07;52.91;99579.50;5111786;28;20195;-54
2022/07/04 01:29:49;;;;;;;8.27;3.70;;;;;;;23.00;53.13;99565.94;5111390;28;20199;-54
2022/07/04 01:32:16;;;;;;;4.97;3.70;;;;;;;22.96;53.74;99568.94;5111473;28;20194;-54
2022/07/04 01:34:42;;;;;;;8.07;3.83;;;;;;;22.97;53.73;99571.47;5111116;28;20207;-55
2022/07/04 01:37:09;;;;;;;4.10;3.15;;;;;;;22.87;54.12;99562.56;5111246;28;20190;-55
2022/07/04 01:39:38;;;;;;;4.15;3.40;;;;;;;22.84;54.62;99560.16;5111358;28;20204;-53
2022/07/04 01:42:06;;;;;;;5.60;3.78;;;;;;;22.79;54.77;99563.16;5111179;28;20202;-53
2022/07/04 01:44:33;;;;;;;5.97;3.38;;;;;;;22.69;55.09;99554.22;5111123;28;20209;-54
2022/07/04 01:47:00;;;;;;;3.55;3.22;;;;;;;22.85;54.89;99561.84;5111080;28;20201;-53
2022/07/04 01:49:28;;;;;;;6.75;3.47;;;;;;;22.83;54.96;99563.75;5111007;28;20709;-54
2022/07/04 01:51:55;;;;;;;5.15;3.55;;;;;;;22.73;55.23;99563.59;5111076;28;20201;-54
2022/07/04 01:54:24;;;;;;;4.38;3.47;;;;;;;22.74;55.63;99559.16;5111240;28;20281;-54
2022/07/04 01:56:53;;;;;;;4.65;3.03;;;;;;;22.78;56.32;99560.66;5111074;28;20578;-58
2022/07/04 02:01:29;;;;;;;3.58;3.30;;;;;;;22.63;57.45;99567.09;5110818;28;20191;-58
2022/07/04 02:02:06;;;;;;;5.13;3.70;;;;;;;22.46;58.45;99561.28;5110930;28;20202;-57
2022/07/04 02:04:33;;;;;;;3.80;3.50;;;;;;;22.35;59.80;99566.56;5110599;28;20202;-56
2022/07/04 02:07:01;;;;;;;6.70;3.60;;;;;;;22.24;60.99;99565.69;5110848;28;20205;-56
2022/07/04 02:09:28;;;;;;;7.68;3.30;;;;;;;22.20;61.64;99565.09;5110498;28;20195;-56
2022/07/04 02:14:42;;;;;;;8.05;3.60;;;;;;;22.17;62.39;99570.59;5111164;28;20669;-57
2022/07/04 02:17:09;;;;;;;5.25;3.40;;;;;;;22.27;62.23;99568.09;5110199;28;20298;-57
2022/07/04 02:19:36;;;;;;;9.50;4.05;;;;;;;22.29;62.27;99568.84;5110631;28;20217;-57
2022/07/04 02:22:03;;;;;;;4.90;3.85;;;;;;;22.26;62.45;99569.91;5110514;28;20222;-57
2022/07/04 02:24:30;;;;;;;6.78;3.97;;;;;;;22.17;62.82;99575.91;5110377;28;20205;-57
2022/07/04 02:26:58;;;;;;;4.90;4.40;;;;;;;22.11;63.16;99570.25;5110400;28;20198;-57
2022/07/04 02:29:25;;;;;;;7.15;4.03;;;;;;;22.05;63.38;99560.97;5110323;28;20220;-57
2022/07/04 02:31:52;;;;;;;6.05;3.85;;;;;;;22.12;63.57;99570.13;5110260;28;20277;-58
2022/07/04 02:34:19;;;;;;;7.47;4.10;;;;;;;22.04;63.88;99583.06;5110250;28;20199;-57
2022/07/04 02:36:46;;;;;;;10.40;4.50;;;;;;;21.93;64.20;99581.19;5110576;28;20247;-56
2022/07/04 02:39:13;;;;;;;7.18;4.45;;;;;;;21.85;65.21;99572.16;5110243;28;20202;-57
2022/07/04 02:41:40;;;;;;;9.52;3.97;;;;;;;21.80;65.09;99585.69;5110263;28;20226;-57
2022/07/04 02:44:09;;;;;;;10.55;4.05;;;;;;;21.71;66.11;99594.31;5110198;28;20249;-57
2022/07/04 02:46:36;;;;;;;9.25;4.85;;;;;;;21.66;66.47;99589.38;5110347;28;20620;-57
2022/07/04 02:49:04;;;;;;;8.40;3.95;;;;;;;21.69;66.35;99590.94;5109956;28;20198;-58
2022/07/04 02:51:31;;;;;;;14.23;4.45;;;;;;;21.67;66.05;99592.84;5110054;28;20228;-54
2022/07/04 02:53:58;;;;;;;7.70;4.35;;;;;;;21.68;65.55;99600.66;5110203;28;20217;-54
2022/07/04 02:56:25;;;;;;;8.00;4.68;;;;;;;21.69;65.74;99597.06;5110123;28;20194;-54
2022/07/04 02:58:52;;;;;;;12.65;4.10;;;;;;;21.69;65.68;99606.78;5110025;28;20198;-55
2022/07/04 03:01:21;;;;;;;8.18;3.95;;;;;;;21.73;65.20;99602.97;5109004;28;20298;-55
2022/07/04 03:03:48;;;;;;;5.07;3.50;;;;;;;21.80;65.13;99608.63;5108790;28;20205;-54
2022/07/04 03:06:15;;;;;;;13.68;4.75;;;;;;;21.80;65.36;99606.00;5108825;28;20202;-55
2022/07/04 03:08:42;;;;;;;6.47;3.83;;;;;;;21.72;65.61;99602.13;5106020;28;20197;-55
2022/07/04 03:11:09;;;;;;;10.02;4.43;;;;;;;21.79;64.79;99612.22;5108580;28;20191;-53
2022/07/04 03:13:37;;;;;;;5.50;4.00;;;;;;;21.86;64.41;99616.13;5108691;28;20198;-54
2022/07/04 03:16:04;;;;;;;5.85;4.28;;;;;;;21.85;64.18;99610.00;5108557;28;20681;-54
2022/07/04 03:18:33;;;;;;;9.55;5.03;;;;;;;21.82;64.52;99612.84;5108737;28;20214;-55
2022/07/04 03:21:01;;;;;;;5.85;4.72;;;;;;;21.76;65.53;99626.53;5091221;28;20223;-58
2022/07/04 03:23:28;;;;;;;5.78;4.97;;;;;;;21.82;65.39;99610.22;5089539;28;20219;-59
2022/07/04 03:25:55;;;;;;;6.38;5.00;;;;;;;21.85;65.88;99612.63;5093187;28;20219;-58
2022/07/04 03:28:22;;;;;;;5.20;4.63;;;;;;;21.84;66.15;99610.09;5093531;28;20314;-59
2022/07/04 03:30:49;;;;;;;5.32;4.80;;;;;;;21.95;65.73;99610.16;5093221;28;20225;-59
2022/07/04 03:33:15;;;;;;;5.65;4.88;;;;;;;21.97;66.48;99606.44;5097145;28;20210;-57
2022/07/04 03:35:44;;;;;;;7.47;5.30;;;;;;;21.91;67.23;99609.53;5110669;28;20202;-57
2022/07/04 03:38:11;;;;;;;8.52;5.45;;;;;;;21.90;67.80;99609.63;5110354;28;20199;-55
2022/07/04 03:40:38;;;;;;;13.07;5.30;;;;;;;22.02;67.52;99609.59;5109942;28;20218;-55
2022/07/04 03:43:06;;;;;;;7.05;5.63;;;;;;;22.03;67.95;99587.50;5110731;28;20199;-55
2022/07/04 03:45:33;;;;;;;10.77;5.03;;;;;;;22.12;68.99;99593.94;5110821;28;20190;-55
2022/07/04 03:48:02;;;;;;;4.95;4.55;;;;;;;22.29;68.93;99588.19;5108594;28;20244;-56
2022/07/04 03:50:29;;;;;;;7.32;5.13;;;;;;;22.50;68.47;99598.94;5109521;28;20659;-53
2022/07/04 03:52:57;;;;;;;8.75;7.90;;;;;;;22.57;68.91;99605.47;5108259;28;20202;-57
2022/07/04 03:55:24;;;;;;;7.28;6.53;;;;;;;22.79;67.99;99605.53;5111098;28;20199;-55
2022/07/04 03:57:51;;;;;;;8.23;6.97;;;;;;;23.60;64.45;99590.28;5109321;28;20267;-56
2022/07/04 04:00:18;;;;;;;12.13;8.32;;;;;;;24.83;59.17;99606.44;5111999;28;20592;-56
2022/07/04 04:02:45;;;;;;;11.27;6.20;;;;;;;26.13;54.15;99599.22;5110276;28;20730;-54
2022/07/04 04:05:26;;;;;;;4.45;4.03;;;;;;;27.03;50.96;99606.78;5110756;28;20194;-55
2022/07/04 04:07:54;;;;;;;5.20;4.45;;;;;;;27.83;48.20;99616.75;5108436;28;20195;-55
2022/07/04 04:10:22;;;;;;;8.40;4.57;;;;;;;28.78;44.63;99616.06;5110818;28;20281;-55
2022/07/04 04:12:49;;;;;;;7.28;4.65;;;;;;;29.56;43.02;99620.28;5109519;28;20199;-54
2022/07/04 04:15:16;;;;;;;6.95;6.15;;;;;;;30.19;41.27;99626.94;5110332;28;20194;-56
2022/07/04 04:17:43;;;;;;;13.23;11.20;;;;;;;31.07;38.77;99617.09;5104522;28;20668;-55
2022/07/04 04:20:11;;;;;;;11.52;10.57;;;;;;;31.15;38.22;99618.97;5097639;28;20213;-57
2022/07/04 04:22:38;;;;;;;6.68;4.65;;;;;;;32.16;38.69;99619.75;5101779;28;20766;-56
2022/07/04 04:25:06;;;;;;;8.07;7.45;;;;;;;33.00;35.62;99629.38;5090839;28;20636;-58
2022/07/04 04:27:35;;;;;;;10.48;7.57;;;;;;;33.83;33.86;99629.03;5090604;28;20579;-58
2022/07/04 04:30:02;;;;;;;18.48;8.82;;;;;;;34.46;32.79;99621.97;5090360;28;20206;-57
2022/07/04 04:32:29;;;;;;;10.18;5.15;;;;;;;35.01;31.82;99628.38;5090666;28;20256;-57
2022/07/04 04:34:56;;;;;;;5.10;4.70;;;;;;;35.28;31.44;99629.41;5104286;28;20194;-55
2022/07/04 04:37:23;;;;;;;42.17;13.05;;;;;;;34.97;33.31;99632.53;5109913;28;20210;-55
2022/07/04 04:39:50;;;;;;;5.68;5.00;;;;;;;35.67;31.08;99640.34;5109509;28;20186;-56
2022/07/04 04:42:17;;;;;;;7.68;4.82;;;;;;;36.44;29.89;99641.78;5103847;28;20214;-55
2022/07/04 04:44:45;;;;;;;9.70;4.30;;;;;;;36.85;29.60;99657.78;5108032;28;20247;-55
2022/07/04 04:47:12;;;;;;;8.40;4.82;;;;;;;37.55;28.79;99658.03;5107258;28;20202;-56
2022/07/04 04:49:39;;;;;;;9.10;4.85;;;;;;;37.96;27.24;99655.75;5108501;28;20205;-56
2022/07/04 04:52:06;;;;;;;6.78;5.32;;;;;;;38.34;27.67;99650.31;5106531;28;20190;-56
2022/07/04 04:54:34;;;;;;;8.95;6.15;;;;;;;38.28;27.18;99642.22;5105337;28;20597;-56
2022/07/04 04:57:01;;;;;;;5.90;5.30;;;;;;;38.34;27.29;99652.19;5107639;28;20202;-55
2022/07/04 04:59:29;;;;;;;14.10;6.72;;;;;;;38.81;26.65;99654.31;5108085;28;20252;-55
2022/07/04 05:01:58;;;;;;;13.40;6.10;;;;;;;39.46;25.37;99642.97;5111201;28;20226;-56
2022/07/04 05:04:25;;;;;;;13.60;5.63;;;;;;;39.68;25.08;99656.91;5104281;28;20199;-55
2022/07/04 05:06:53;;;;;;;10.75;4.75;;;;;;;39.74;25.42;99651.38;5108324;28;20213;-55
2022/07/04 05:09:20;;;;;;;4.80;4.50;;;;;;;39.48;25.53;99651.72;5109694;28;20197;-55
2022/07/04 05:11:47;;;;;;;5.72;4.18;;;;;;;39.74;25.10;99654.09;5109374;28;20281;-55
2022/07/04 05:14:14;;;;;;;4.70;4.30;;;;;;;40.63;24.33;99657.81;5109187;28;20190;-55
2022/07/04 05:16:41;;;;;;;9.07;4.40;;;;;;;40.89;23.90;99649.16;5108966;28;20218;-56
2022/07/04 05:19:10;;;;;;;14.88;5.30;;;;;;;41.16;24.08;99651.41;5109469;28;20224;-55
2022/07/04 05:21:37;;;;;;;8.20;5.07;;;;;;;41.41;23.29;99641.06;5107243;28;20225;-55
2022/07/04 05:24:05;;;;;;;5.15;4.25;;;;;;;40.92;23.56;99647.88;5108616;28;20191;-55
2022/07/04 05:26:32;;;;;;;8.43;3.88;;;;;;;40.91;23.94;99641.59;5108512;28;20582;-55
2022/07/04 05:28:59;;;;;;;10.43;4.22;;;;;;;41.39;23.67;99640.47;5110192;28;20197;-55
2022/07/04 05:31:28;;;;;;;8.82;4.18;;;;;;;41.26;23.43;99651.63;5110098;28;20642;-55
2022/07/04 05:33:55;;;;;;;15.10;4.45;;;;;;;40.97;23.38;99651.50;5111038;28;20194;-55
2022/07/04 05:36:24;;;;;;;6.53;3.90;;;;;;;40.72;23.06;99647.41;5110656;28;20250;-56
2022/07/04 05:38:50;;;;;;;5.72;3.83;;;;;;;40.52;23.92;99643.09;5111423;28;20190;-54
2022/07/04 05:41:17;;;;;;;7.80;4.25;;;;;;;40.21;24.34;99643.38;5111147;28;20243;-55
2022/07/04 05:43:44;;;;;;;8.27;4.30;;;;;;;40.81;23.57;99640.53;5111135;28;20681;-55
2022/07/04 05:46:11;;;;;;;9.50;4.53;;;;;;;41.15;22.73;99641.59;5110841;28;20233;-55
2022/07/04 05:48:38;;;;;;;8.63;4.60;;;;;;;41.17;23.14;99647.63;5111041;28;20194;-56
2022/07/04 05:51:05;;;;;;;7.18;4.55;;;;;;;40.64;23.03;99643.94;5110737;28;20190;-55
2022/07/04 05:53:34;;;;;;;9.70;3.92;;;;;;;40.86;23.21;99649.63;5110988;28;20737;-55
2022/07/04 05:56:01;;;;;;;6.18;4.47;;;;;;;40.35;23.81;99646.75;5110681;28;20201;-54
2022/07/04 05:58:28;;;;;;;10.95;4.10;;;;;;;40.94;23.61;99649.28;5110917;28;20206;-55
2022/07/04 06:00:54;;;;;;;6.35;4.18;;;;;;;41.21;22.40;99648.78;5110445;27;20194;-56
2022/07/04 06:03:21;;;;;;;7.47;3.67;;;;;;;41.02;22.35;99645.38;5110246;28;20218;-56
2022/07/04 06:05:49;;;;;;;6.30;3.92;;;;;;;40.57;22.72;99648.66;5109231;28;20666;-56
2022/07/04 06:08:15;;;;;;;11.60;4.10;;;;;;;40.38;23.18;99640.84;5109259;28;20358;-54
2022/07/04 06:10:44;;;;;;;3.70;3.42;;;;;;;39.15;24.06;99639.34;5109450;28;20576;-55
2022/07/04 06:13:11;;;;;;;8.70;3.63;;;;;;;39.79;24.02;99643.38;5109238;28;20269;-56
2022/07/04 06:15:38;;;;;;;10.48;3.83;;;;;;;39.40;23.42;99636.53;5106380;28;20733;-55
2022/07/04 06:18:05;;;;;;;4.40;3.65;;;;;;;39.47;23.22;99622.91;5109253;28;20208;-55
2022/07/04 06:20:32;;;;;;;7.30;3.33;;;;;;;38.83;24.33;99632.34;5109140;28;20200;-55
2022/07/04 06:22:59;;;;;;;7.13;3.53;;;;;;;38.54;24.64;99630.34;5106274;28;20253;-56
2022/07/04 06:25:26;;;;;;;14.45;3.80;;;;;;;38.41;24.87;99621.25;5109060;28;20198;-56
2022/07/04 06:27:54;;;;;;;5.25;3.83;;;;;;;38.71;24.78;99621.44;5109421;28;20228;-59
2022/07/04 06:30:21;;;;;;;5.45;3.78;;;;;;;39.14;24.22;99615.97;5107175;28;20202;-57
2022/07/04 06:32:50;;;;;;;5.13;3.70;;;;;;;39.05;24.21;99621.94;5108948;28;20197;-56
2022/07/04 06:38:04;;;;;;;4.47;3.97;;;;;;;39.07;23.79;99630.66;5106914;28;20193;-56
2022/07/04 06:40:31;;;;;;;5.70;3.78;;;;;;;38.66;24.35;99623.13;5108753;28;20194;-56
2022/07/04 06:43:00;;;;;;;5.00;3.67;;;;;;;38.57;24.91;99611.75;5105810;28;20218;-56
2022/07/04 06:45:27;;;;;;;3.70;3.40;;;;;;;38.67;24.91;99614.78;5108782;28;20200;-56
2022/07/04 06:47:54;;;;;;;4.93;4.43;;;;;;;38.37;24.92;99601.06;5109239;28;20570;-55
2022/07/04 06:50:21;;;;;;;12.68;3.85;;;;;;;38.12;25.72;99611.91;5108899;28;20285;-56
2022/07/04 06:52:48;;;;;;;5.70;4.20;;;;;;;38.12;25.59;99606.47;5108875;28;20200;-56
2022/07/04 06:55:15;;;;;;;4.47;3.53;;;;;;;37.66;26.47;99595.91;5110056;28;20554;-56
2022/07/04 06:57:42;;;;;;;7.63;3.55;;;;;;;37.50;25.57;99598.25;5109968;28;20223;-56
2022/07/04 07:00:11;;;;;;;6.50;3.72;;;;;;;37.46;26.12;99594.34;5114233;28;20584;-56
2022/07/04 07:02:38;;;;;;;6.00;4.82;;;;;;;37.53;26.35;99595.97;5114087;28;20228;-56
2022/07/04 07:05:06;;;;;;;7.68;4.53;;;;;;;37.25;26.17;99588.16;5114180;28;20204;-56
2022/07/04 07:07:33;;;;;;;6.38;4.55;;;;;;;37.21;26.72;99588.81;5112873;28;20696;-57
2022/07/04 07:10:01;;;;;;;10.98;5.10;;;;;;;37.49;26.18;99577.63;5112745;28;20380;-56
2022/07/04 07:12:28;;;;;;;9.05;6.03;;;;;;;37.43;26.28;99588.31;5113218;28;20198;-56
2022/07/04 07:14:55;;;;;;;5.85;3.63;;;;;;;37.39;26.14;99580.81;5112651;28;20194;-57
2022/07/04 07:17:23;;;;;;;9.90;4.15;;;;;;;37.29;26.35;99578.56;5112108;28;20259;-57
2022/07/04 07:19:50;;;;;;;5.88;3.90;;;;;;;37.17;27.25;99574.03;5113037;28;20229;-57
2022/07/04 07:22:17;;;;;;;5.28;4.35;;;;;;;37.35;26.52;99571.47;5112261;28;20690;-56
2022/07/04 07:24:44;;;;;;;5.13;4.80;;;;;;;37.16;26.89;99569.69;5113151;28;20198;-57
2022/07/04 07:27:11;;;;;;;5.90;4.65;;;;;;;36.97;27.29;99577.63;5113758;28;20198;-57
2022/07/04 07:29:39;;;;;;;11.07;4.60;;;;;;;37.25;27.42;99577.34;5112659;28;20186;-57
2022/07/04 07:32:07;;;;;;;5.35;4.07;;;;;;;37.69;26.39;99575.69;5112032;28;20313;-55
2022/07/04 07:34:35;;;;;;;9.88;4.10;;;;;;;37.72;25.97;99570.66;5112064;28;20201;-56
2022/07/04 07:37:02;;;;;;;5.75;4.60;;;;;;;37.92;25.52;99570.53;5113264;28;20696;-56
2022/07/04 07:39:29;;;;;;;9.05;3.85;;;;;;;38.06;25.68;99561.22;5113662;28;20194;-56
2022/07/04 07:41:56;;;;;;;5.25;4.30;;;;;;;38.05;26.15;99559.56;5113437;28;20214;-57
2022/07/04 07:44:23;;;;;;;5.50;3.95;;;;;;;38.02;25.98;99561.91;5113785;28;20186;-57
2022/07/04 07:46:50;;;;;;;4.32;3.90;;;;;;;38.21;26.39;99560.09;5113609;28;20198;-57
2022/07/04 07:49:17;;;;;;;4.38;3.92;;;;;;;38.34;26.12;99560.00;5113649;28;20639;-57
2022/07/04 07:51:46;;;;;;;7.38;4.90;;;;;;;38.49;25.73;99561.28;5113280;28;20190;-57
2022/07/04 07:54:13;;;;;;;4.75;4.03;;;;;;;38.71;26.06;99560.91;5113364;28;20681;-57
2022/07/04 07:56:40;;;;;;;6.45;5.03;;;;;;;38.58;25.56;99559.16;5113078;27;20201;-57
2022/07/04 07:59:07;;;;;;;4.70;4.35;;;;;;;38.71;25.58;99558.19;5112678;28;20726;-57
2022/07/04 08:01:34;;;;;;;6.32;4.45;;;;;;;38.61;25.37;99560.56;5111702;28;20197;-57
2022/07/04 08:06:46;;;;;;;4.35;4.03;;;;;;;39.90;23.97;99562.94;5110135;28;20597;-58
2022/07/04 08:09:15;;;;;;;8.07;4.38;;;;;;;40.30;24.10;99556.88;5111453;28;20204;-57
2022/07/04 08:11:41;;;;;;;5.13;4.25;;;;;;;40.39;24.23;99547.31;5112261;28;20665;-57
2022/07/04 08:14:09;;;;;;;6.28;4.38;;;;;;;40.17;23.67;99539.69;5112156;28;20198;-57
2022/07/04 08:16:36;;;;;;;9.88;6.15;;;;;;;40.44;23.47;99548.22;5111567;28;20238;-57
2022/07/04 08:19:03;;;;;;;8.40;5.25;;;;;;;40.15;23.42;99549.16;5111994;28;20198;-57
2022/07/04 08:21:30;;;;;;;5.75;5.40;;;;;;;40.36;23.32;99548.59;5111854;28;20287;-56
2022/07/04 08:23:59;;;;;;;6.43;4.43;;;;;;;40.67;23.67;99552.81;5111725;28;20755;-57
2022/07/04 08:26:26;;;;;;;9.85;5.07;;;;;;;40.99;22.59;99545.91;5111734;28;20198;-57
2022/07/04 08:28:55;;;;;;;5.00;4.60;;;;;;;41.04;22.63;99550.66;5112312;28;20639;-57
2022/07/04 08:31:22;;;;;;;5.40;3.92;;;;;;;40.96;23.08;99542.88;5111281;28;20198;-57
2022/07/04 08:33:49;;;;;;;8.07;4.75;;;;;;;41.14;22.69;99552.78;5111804;28;20596;-57
2022/07/04 08:36:15;;;;;;;4.82;4.50;;;;;;;41.02;22.83;99551.94;5112379;28;20204;-57
2022/07/04 08:38:42;;;;;;;7.93;4.80;;;;;;;41.04;22.87;99549.81;5112779;28;20696;-56
2022/07/04 08:41:13;;;;;;;7.28;4.10;;;;;;;40.42;22.69;99552.25;5112030;28;20200;-56
2022/07/04 08:43:40;;;;;;;4.07;3.78;;;;;;;39.98;23.24;99545.44;5112430;28;20590;-55
2022/07/04 08:46:10;;;;;;;5.38;4.60;;;;;;;39.70;24.71;99549.63;5112490;28;20779;-55
2022/07/04 08:48:39;;;;;;;4.07;3.40;;;;;;;39.09;24.02;99533.53;5112044;28;20601;-54
2022/07/04 08:51:16;;;;;;;5.13;3.65;;;;;;;39.13;24.59;99538.28;5112153;28;20661;-54
2022/07/04 08:53:50;;;;;;;7.80;4.15;;;;;;;39.00;24.39;99532.19;5112041;28;20201;-55
2022/07/04 08:59:05;;;;;;;7.80;3.90;;;;;;;38.91;23.97;99538.97;5112018;28;20239;-55
2022/07/04 09:01:34;;;;;;;4.43;4.00;;;;;;;38.54;24.52;99533.53;5111906;28;20209;-54
2022/07/04 09:04:02;;;;;;;8.70;4.30;;;;;;;38.52;24.29;99535.59;5111778;28;20849;-54
2022/07/04 09:06:30;;;;;;;3.85;3.55;;;;;;;37.61;24.40;99527.97;5111940;28;20198;-54
2022/07/04 09:08:58;;;;;;;6.95;3.85;;;;;;;37.52;24.90;99528.47;5111979;28;20202;-54
2022/07/04 09:11:26;;;;;;;9.90;4.38;;;;;;;37.15;25.15;99522.78;5111940;28;20691;-54
2022/07/04 09:13:53;;;;;;;3.78;3.25;;;;;;;37.48;24.91;99525.34;5111753;28;20204;-55
2022/07/04 09:16:20;;;;;;;3.50;3.30;;;;;;;36.86;22.79;99523.34;5110751;28;20234;-55
2022/07/04 09:18:47;;;;;;;6.00;2.88;;;;;;;36.92;20.27;99527.91;5111599;28;20190;-54
2022/07/04 09:21:14;;;;;;;4.30;3.35;;;;;;;36.87;21.58;99516.91;5111224;28;20197;-55
2022/07/04 09:23:43;;;;;;;5.88;3.30;;;;;;;36.56;22.20;99521.13;5110672;28;20301;-54
2022/07/04 09:26:14;;;;;;;3.70;3.33;;;;;;;37.02;22.70;99507.44;5111016;28;20583;-58
2022/07/04 09:28:44;;;;;;;7.65;3.47;;;;;;;37.46;22.88;99518.50;5108887;28;20194;-58
2022/07/04 09:31:16;;;;;;;5.15;3.80;;;;;;;37.72;23.56;99504.81;5110986;28;20225;-59
2022/07/04 09:33:52;;;;;;;6.38;3.70;;;;;;;37.82;24.36;99505.13;5110939;28;20592;-58
2022/07/04 09:36:21;;;;;;;5.22;3.97;;;;;;;37.78;23.84;99504.78;5108535;28;20285;-58
2022/07/04 09:39:05;;;;;;;3.00;2.88;;;;;;;37.57;21.32;99506.97;5111214;28;20202;-58
2022/07/04 09:41:35;;;;;;;2.95;2.72;;;;;;;37.37;22.05;99510.63;5110019;28;20198;-58
2022/07/04 09:44:05;;;;;;;3.47;3.17;;;;;;;37.48;21.60;99510.97;5109704;28;20220;-57
2022/07/04 09:46:33;;;;;;;6.38;3.08;;;;;;;37.51;21.62;99510.56;5107395;28;20456;-57
2022/07/04 09:49:00;;;;;;;3.17;2.88;;;;;;;37.34;21.64;99513.78;5109330;28;20237;-58
2022/07/04 09:51:41;;;;;;;3.65;3.15;;;;;;;37.37;22.09;99505.22;5109885;28;20713;-58
2022/07/04 09:54:16;;;;;;;10.38;3.53;;;;;;;37.69;21.83;99499.84;5107654;28;20646;-58
2022/07/04 09:56:45;;;;;;;6.13;4.03;;;;;;;37.74;22.43;99495.41;5109827;28;20216;-57
2022/07/04 09:59:13;;;;;;;4.78;3.30;;;;;;;36.83;24.03;99502.97;5109510;28;20588;-57
2022/07/04 10:01:40;;;;;;;4.10;3.67;;;;;;;37.01;23.27;99499.56;5109464;28;20646;-57
2022/07/04 10:04:08;;;;;;;5.53;3.45;;;;;;;36.89;23.65;99507.53;5109452;28;20216;-59
2022/07/04 10:06:38;;;;;;;5.72;3.42;;;;;;;36.73;24.57;99498.00;5109781;28;20666;-53
2022/07/04 10:09:10;;;;;;;4.65;3.53;;;;;;;37.06;23.74;99502.44;5106883;28;20191;-54
2022/07/04 10:11:38;;;;;;;4.40;3.28;;;;;;;37.22;23.54;99507.41;5109730;28;20696;-54
2022/07/04 10:14:07;;;;;;;7.80;4.00;;;;;;;36.82;23.31;99498.59;5110508;28;20191;-55
2022/07/04 10:16:36;;;;;;;6.22;3.58;;;;;;;36.85;23.72;99489.22;5105077;28;20235;-54
2022/07/04 10:19:03;;;;;;;3.50;3.20;;;;;;;36.63;23.67;99484.06;5106671;28;20596;-56
2022/07/04 10:21:31;;;;;;;7.32;3.72;;;;;;;36.39;24.29;99495.56;5107875;28;20209;-54
2022/07/04 10:23:58;;;;;;;3.50;2.83;;;;;;;36.15;24.45;99497.03;5108141;28;20214;-54
2022/07/04 10:26:25;;;;;;;15.65;3.83;;;;;;;36.06;24.58;99486.66;5108273;28;20196;-56
2022/07/04 10:28:53;;;;;;;4.05;3.63;;;;;;;35.95;24.95;99478.16;5105311;28;20575;-56
2022/07/04 10:31:21;;;;;;;4.53;3.65;;;;;;;36.01;25.06;99484.56;5108253;28;20589;-57
2022/07/04 10:33:51;;;;;;;8.02;3.50;;;;;;;35.95;25.17;99483.53;5107572;28;20186;-57
2022/07/04 10:36:20;;;;;;;3.88;3.58;;;;;;;35.68;25.93;99465.63;5108461;28;20198;-57
2022/07/04 10:38:52;;;;;;;3.90;3.55;;;;;;;35.71;25.87;99464.41;5108313;28;20674;-57
2022/07/04 10:41:22;;;;;;;6.57;3.42;;;;;;;35.50;25.71;99460.03;5108172;28;20201;-59
2022/07/04 10:43:54;;;;;;;5.10;3.42;;;;;;;35.25;26.54;99463.31;5108151;28;21013;-57
2022/07/04 10:46:46;;;;;;;3.67;3.47;;;;;;;35.15;26.47;99460.13;5108468;28;20201;-55
2022/07/04 10:49:25;;;;;;;3.53;3.33;;;;;;;35.19;27.18;99461.41;5098468;28;20196;-57
2022/07/04 10:51:54;;;;;;;8.43;4.03;;;;;;;35.12;26.73;99449.75;5108188;28;20205;-57
2022/07/04 10:54:22;;;;;;;3.75;3.45;;;;;;;34.97;27.14;99450.97;5108422;28;20237;-56
2022/07/04 10:56:53;;;;;;;6.07;3.42;;;;;;;34.87;28.08;99440.56;5108173;28;20598;-57
2022/07/04 10:59:25;;;;;;;3.67;3.38;;;;;;;34.92;27.42;99443.47;5108494;28;20198;-57
2022/07/04 11:02:23;;;;;;;4.00;3.30;;;;;;;34.75;27.03;99436.75;5105814;28;20700;-56
2022/07/04 11:05:00;;;;;;;5.70;3.75;;;;;;;34.58;27.19;99423.59;5107130;28;20215;-58
2022/07/04 11:07:58;;;;;;;7.72;4.25;;;;;;;34.60;27.68;99428.81;5108765;28;20684;-57
2022/07/04 11:10:26;;;;;;;5.50;3.85;;;;;;;34.65;27.84;99439.84;5107414;28;20201;-57
2022/07/04 11:13:15;;;;;;;5.38;3.70;;;;;;;34.31;27.89;99438.00;5106605;28;20202;-56
2022/07/04 11:16:02;;;;;;;3.92;3.58;;;;;;;34.17;27.87;99431.66;5105806;28;20232;-57
2022/07/04 11:18:30;;;;;;;4.18;3.55;;;;;;;34.21;28.53;99430.22;5107110;28;20187;-58
2022/07/04 11:20:58;;;;;;;4.53;3.50;;;;;;;34.26;28.42;99426.16;5107675;28;20561;-58
2022/07/04 11:23:25;;;;;;;3.88;3.58;;;;;;;34.38;28.64;99440.72;5107164;28;20215;-55
2022/07/04 11:25:55;;;;;;;3.83;3.53;;;;;;;34.32;28.31;99414.56;5106592;28;20633;-56
2022/07/04 11:28:23;;;;;;;4.82;4.03;;;;;;;34.34;28.53;99429.50;5106876;28;20217;-57
2022/07/04 11:30:51;;;;;;;4.85;3.63;;;;;;;34.18;28.57;99416.34;5107941;28;20195;-57
2022/07/04 11:33:20;;;;;;;6.22;3.70;;;;;;;34.21;28.48;99429.38;5107946;28;20702;-57
2022/07/04 11:39:01;;;;;;;4.90;3.60;;;;;;;34.66;28.16;99416.38;5085510;27;20759;-56
2022/07/04 11:47:12;;;;;;;4.80;3.38;;;;;;;34.70;28.45;99414.94;5083307;28;20666;-56
2022/07/04 11:49:46;;;;;;;7.57;3.35;;;;;;;34.22;28.43;99401.41;5065755;28;20196;-56
2022/07/04 11:52:13;;;;;;;5.32;3.30;;;;;;;34.29;28.81;99393.41;5064143;28;20660;-56
2022/07/04 11:54:43;;;;;;;4.90;3.50;;;;;;;34.28;28.87;99379.13;5066663;28;20200;-57
2022/07/04 11:57:12;;;;;;;4.88;3.90;;;;;;;34.32;28.50;99404.59;5067121;28;20219;-56